Time;durP1;ratioP1;P1;durP2;ratioP2;P2;SDS_P1;SDS_P2;PMS_P1;PMS_P2;Temp;Humidity;BMP_temperature;BMP_pressure;BME280_temperature;BME280_humidity;BME280_pressure;Samples;Min_cycle;Max_cycle;Signal;HPM_P1;HPM_P2
2023/03/18 00:00:10;;;;;;;;;;;;;;;;;;7364151;19;798;-65
2023/03/18 00:02:38;;;;;;;;;;;;;;;;;;7361642;19;1842;-65
2023/03/18 00:05:06;;;;;;;;;;;;;;;;;;7361838;19;1368;-65
2023/03/18 00:07:34;;;;;;;;;;;;;;;;;;7365114;19;1607;-64
2023/03/18 00:10:03;;;;;;;;;;;;;;;;;;7364966;19;1868;-65
2023/03/18 00:12:31;;;;;;;;;;;;;;;;;;7363556;19;835;-65
2023/03/18 00:15:01;;;;;;;;;;;;;;;;;;7361714;19;1271;-65
2023/03/18 00:17:29;;;;;;;;;;;;;;;;;;7363893;19;894;-65
2023/03/18 00:20:04;;;;;;;;;;;;;;;;;;7363819;19;828;-65
2023/03/18 00:22:32;;;;;;;;;;;;;;;;;;7361634;19;1858;-65
2023/03/18 00:25:00;;;;;;;;;;;;;;;;;;7359706;19;1281;-65
2023/03/18 00:27:29;;;;;;;;;;;;;;;;;;7362835;19;814;-65
2023/03/18 00:29:57;;;;;;;;;;;;;;;;;;7362869;19;878;-65
2023/03/18 00:32:26;;;;;;;;;;;;;;;;;;7360587;19;921;-64
2023/03/18 00:34:56;;;;;;;;;;;;;;;;;;7360470;19;1669;-64
2023/03/18 00:37:30;;;;;;;;;;;;;;;;;;7363976;19;786;-65
2023/03/18 00:40:04;;;;;;;;;;;;;;;;;;7361564;19;772;-65
2023/03/18 00:42:37;;;;;;;;;;;;;;;;;;7361872;19;1854;-64
2023/03/18 00:45:06;;;;;;;;;;;;;;;;;;7360048;19;1324;-64
2023/03/18 00:47:34;;;;;;;;;;;;;;;;;;7363855;19;773;-65
2023/03/18 00:50:02;;;;;;;;;;;;;;;;;;7363439;19;877;-65
2023/03/18 00:52:31;;;;;;;;;;;;;;;;;;7360554;19;1286;-64
2023/03/18 00:54:59;;;;;;;;;;;;;;;;;;7359970;19;1298;-64
2023/03/18 00:57:27;;;;;;;;;;;;;;;;;;7365160;19;2132;-64
2023/03/18 00:59:55;;;;;;;;;;;;;;;;;;7360777;19;908;-64
2023/03/18 01:02:24;;;;;;;;;;;;;;;;;;7358950;19;1857;-64
2023/03/18 01:04:52;;;;;;;;;;;;;;;;;;7364729;19;1866;-64
2023/03/18 01:07:20;;;;;;;;;;;;;;;;;;7364510;19;793;-64
2023/03/18 01:09:50;;;;;;;;;;;;;;;;;;7367487;19;852;-64
2023/03/18 01:12:19;;;;;;;;;;;;;;;;;;7370225;19;2001;-65
2023/03/18 01:14:48;;;;;;;;;;;;;;;;;;7366210;19;1286;-65
2023/03/18 01:17:16;;;;;;;;;;;;;;;;;;7368665;19;766;-64
2023/03/18 01:19:44;;;;;;;;;;;;;;;;;;7368175;19;794;-64
2023/03/18 01:22:13;;;;;;;;;;;;;;;;;;7366479;19;1853;-65
2023/03/18 01:24:46;;;;;;;;;;;;;;;;;;7365872;19;1882;-64
2023/03/18 01:27:15;;;;;;;;;;;;;;;;;;7368593;19;845;-64
2023/03/18 01:29:46;;;;;;;;;;;;;;;;;;7367088;19;789;-64
2023/03/18 01:32:19;;;;;;;;;;;;;;;;;;7370142;19;1833;-65
2023/03/18 01:34:48;;;;;;;;;;;;;;;;;;7365519;19;1336;-65
2023/03/18 01:37:18;;;;;;;;;;;;;;;;;;7367297;19;791;-65
2023/03/18 01:39:48;;;;;;;;;;;;;;;;;;7365790;19;1443;-64
2023/03/18 01:42:22;;;;;;;;;;;;;;;;;;7365680;19;1869;-65
2023/03/18 01:44:50;;;;;;;;;;;;;;;;;;7364969;19;1282;-64
2023/03/18 01:47:20;;;;;;;;;;;;;;;;;;7368588;19;1875;-64
2023/03/18 01:49:54;;;;;;;;;;;;;;;;;;7366494;19;763;-64
2023/03/18 01:52:22;;;;;;;;;;;;;;;;;;7368343;19;865;-64
2023/03/18 01:54:51;;;;;;;;;;;;;;;;;;7365055;19;1277;-64
2023/03/18 01:57:19;;;;;;;;;;;;;;;;;;7368079;19;872;-64
2023/03/18 01:59:47;;;;;;;;;;;;;;;;;;7367890;19;1877;-64
2023/03/18 02:02:15;;;;;;;;;;;;;;;;;;7365294;19;1853;-64
2023/03/18 02:04:44;;;;;;;;;;;;;;;;;;7366303;19;1354;-64
2023/03/18 02:07:13;;;;;;;;;;;;;;;;;;7365972;19;839;-64
2023/03/18 02:09:41;;;;;;;;;;;;;;;;;;7365158;19;817;-65
2023/03/18 02:12:10;;;;;;;;;;;;;;;;;;7366059;19;860;-65
2023/03/18 02:14:38;;;;;;;;;;;;;;;;;;7364161;19;1349;-64
2023/03/18 02:17:06;;;;;;;;;;;;;;;;;;7366212;19;779;-65
2023/03/18 02:19:38;;;;;;;;;;;;;;;;;;7362987;19;783;-64
2023/03/18 02:22:06;;;;;;;;;;;;;;;;;;7364794;19;1854;-64
2023/03/18 02:24:35;;;;;;;;;;;;;;;;;;7366749;19;1284;-65
2023/03/18 02:27:06;;;;;;;;;;;;;;;;;;7366714;19;1839;-65
2023/03/18 02:29:41;;;;;;;;;;;;;;;;;;7365743;19;882;-64
2023/03/18 02:32:13;;;;;;;;;;;;;;;;;;7367386;19;1799;-64
2023/03/18 02:34:42;;;;;;;;;;;;;;;;;;7369210;19;2180;-65
2023/03/18 02:37:10;;;;;;;;;;;;;;;;;;7367151;19;1767;-65
2023/03/18 02:39:40;;;;;;;;;;;;;;;;;;7365896;19;926;-65
2023/03/18 02:42:09;;;;;;;;;;;;;;;;;;7365880;19;1913;-65
2023/03/18 02:44:40;;;;;;;;;;;;;;;;;;7362445;19;1326;-65
2023/03/18 02:47:33;;;;;;;;;;;;;;;;;;7368319;19;1881;-65
2023/03/18 02:50:02;;;;;;;;;;;;;;;;;;7366760;19;1015;-65
2023/03/18 02:52:30;;;;;;;;;;;;;;;;;;7364523;19;778;-65
2023/03/18 02:55:00;;;;;;;;;;;;;;;;;;7362685;19;1286;-65
2023/03/18 02:57:30;;;;;;;;;;;;;;;;;;7365147;19;813;-64
2023/03/18 02:59:58;;;;;;;;;;;;;;;;;;7364791;19;920;-65
2023/03/18 03:02:27;;;;;;;;;;;;;;;;;;7366425;19;1849;-65
2023/03/18 03:04:55;;;;;;;;;;;;;;;;;;7364099;19;1327;-65
2023/03/18 03:07:23;;;;;;;;;;;;;;;;;;7365764;19;856;-64
2023/03/18 03:09:53;;;;;;;;;;;;;;;;;;7364980;19;1865;-64
2023/03/18 03:12:22;;;;;;;;;;;;;;;;;;7364590;19;861;-64
2023/03/18 03:14:54;;;;;;;;;;;;;;;;;;7362467;19;1372;-64
2023/03/18 03:17:23;;;;;;;;;;;;;;;;;;7364798;19;868;-65
2023/03/18 03:19:52;;;;;;;;;;;;;;;;;;7365442;19;834;-64
2023/03/18 03:22:20;;;;;;;;;;;;;;;;;;7363831;19;1834;-64
2023/03/18 03:24:49;;;;;;;;;;;;;;;;;;7363909;19;1344;-64
2023/03/18 03:27:17;;;;;;;;;;;;;;;;;;7364862;19;782;-64
2023/03/18 03:29:45;;;;;;;;;;;;;;;;;;7363892;19;798;-64
2023/03/18 03:32:13;;;;;;;;;;;;;;;;;;7365392;19;875;-64
2023/03/18 03:34:42;;;;;;;;;;;;;;;;;;7361499;19;2129;-64
2023/03/18 03:37:13;;;;;;;;;;;;;;;;;;7365613;19;726;-64
2023/03/18 03:39:41;;;;;;;;;;;;;;;;;;7368808;19;1881;-64
2023/03/18 03:42:09;;;;;;;;;;;;;;;;;;7364542;19;1853;-64
2023/03/18 03:44:37;;;;;;;;;;;;;;;;;;7363924;19;1265;-64
2023/03/18 03:47:06;;;;;;;;;;;;;;;;;;7364086;19;835;-64
2023/03/18 03:49:34;;;;;;;;;;;;;;;;;;7362951;19;767;-64
2023/03/18 03:52:02;;;;;;;;;;;;;;;;;;7362886;19;779;-64
2023/03/18 03:54:32;;;;;;;;;;;;;;;;;;7361451;19;1341;-64
2023/03/18 03:57:01;;;;;;;;;;;;;;;;;;7363096;19;819;-64
2023/03/18 03:59:29;;;;;;;;;;;;;;;;;;7363340;19;823;-64
2023/03/18 04:02:16;;;;;;;;;;;;;;;;;;7361895;19;1855;-64
2023/03/18 04:04:45;;;;;;;;;;;;;;;;;;7362434;19;1321;-64
2023/03/18 04:07:22;;;;;;;;;;;;;;;;;;7367085;19;1869;-64
2023/03/18 04:09:50;;;;;;;;;;;;;;;;;;7364236;19;833;-64
2023/03/18 04:12:19;;;;;;;;;;;;;;;;;;7364497;19;1921;-64
2023/03/18 04:14:53;;;;;;;;;;;;;;;;;;7360679;19;1377;-64
2023/03/18 04:17:22;;;;;;;;;;;;;;;;;;7362802;19;824;-64
2023/03/18 04:19:50;;;;;;;;;;;;;;;;;;7362733;19;803;-64
2023/03/18 04:22:18;;;;;;;;;;;;;;;;;;7362048;19;1864;-64
2023/03/18 04:24:46;;;;;;;;;;;;;;;;;;7361716;19;1290;-64
2023/03/18 04:27:14;;;;;;;;;;;;;;;;;;7362447;19;874;-64
2023/03/18 04:29:43;;;;;;;;;;;;;;;;;;7361753;19;842;-64
2023/03/18 04:32:11;;;;;;;;;;;;;;;;;;7363522;19;806;-64
2023/03/18 04:34:40;;;;;;;;;;;;;;;;;;7361920;19;1884;-64
2023/03/18 04:37:09;;;;;;;;;;;;;;;;;;7362121;19;792;-64
2023/03/18 04:39:39;;;;;;;;;;;;;;;;;;7360701;19;850;-65
2023/03/18 04:42:10;;;;;;;;;;;;;;;;;;7365497;19;1856;-64
2023/03/18 04:44:38;;;;;;;;;;;;;;;;;;7368026;19;1313;-65
2023/03/18 04:47:06;;;;;;;;;;;;;;;;;;7368813;19;846;-65
2023/03/18 04:49:35;;;;;;;;;;;;;;;;;;7367497;19;813;-64
2023/03/18 04:52:06;;;;;;;;;;;;;;;;;;7370723;19;1915;-64
2023/03/18 04:54:36;;;;;;;;;;;;;;;;;;7366494;19;1375;-64
2023/03/18 04:57:06;;;;;;;;;;;;;;;;;;7368430;19;855;-64
2023/03/18 04:59:38;;;;;;;;;;;;;;;;;;7367873;19;829;-64
2023/03/18 05:02:08;;;;;;;;;;;;;;;;;;7367378;19;699;-64
2023/03/18 05:04:37;;;;;;;;;;;;;;;;;;7367395;19;1900;-65
2023/03/18 05:07:06;;;;;;;;;;;;;;;;;;7372069;19;1906;-64
2023/03/18 05:09:37;;;;;;;;;;;;;;;;;;7367718;19;707;-64
2023/03/18 05:12:08;;;;;;;;;;;;;;;;;;7368140;19;741;-64
2023/03/18 05:14:37;;;;;;;;;;;;;;;;;;7366745;19;1414;-64
2023/03/18 05:17:06;;;;;;;;;;;;;;;;;;7367922;19;793;-64
2023/03/18 05:19:37;;;;;;;;;;;;;;;;;;7370355;19;1884;-64
2023/03/18 05:22:14;;;;;;;;;;;;;;;;;;7368652;19;775;-64
2023/03/18 05:24:42;;;;;;;;;;;;;;;;;;7365398;19;1850;-64
2023/03/18 05:27:11;;;;;;;;;;;;;;;;;;7367799;19;804;-64
2023/03/18 05:29:42;;;;;;;;;;;;;;;;;;7366374;19;806;-64
2023/03/18 05:32:15;;;;;;;;;;;;;;;;;;7368317;19;693;-64
2023/03/18 05:34:43;;;;;;;;;;;;;;;;;;7370318;19;1881;-64
2023/03/18 05:37:12;;;;;;;;;;;;;;;;;;7367908;19;801;-64
2023/03/18 05:39:45;;;;;;;;;;;;;;;;;;7365927;19;762;-64
2023/03/18 05:42:16;;;;;;;;;;;;;;;;;;7366511;19;814;-64
2023/03/18 05:44:45;;;;;;;;;;;;;;;;;;7365211;19;1854;-64
2023/03/18 05:47:15;;;;;;;;;;;;;;;;;;7367648;19;1879;-65
2023/03/18 05:50:01;;;;;;;;;;;;;;;;;;7366041;19;781;-64
2023/03/18 05:52:30;;;;;;;;;;;;;;;;;;7367011;19;852;-64
2023/03/18 05:55:02;;;;;;;;;;;;;;;;;;7364999;19;1313;-64
2023/03/18 05:57:35;;;;;;;;;;;;;;;;;;7367369;19;1838;-65
2023/03/18 06:00:06;;;;;;;;;;;;;;;;;;7366334;19;807;-65
2023/03/18 06:02:45;;;;;;;;;;;;;;;;;;7365974;19;1849;-65
2023/03/18 06:05:14;;;;;;;;;;;;;;;;;;7368024;19;1826;-65
2023/03/18 06:07:42;;;;;;;;;;;;;;;;;;7366521;19;801;-65
2023/03/18 06:10:11;;;;;;;;;;;;;;;;;;7368264;19;1994;-64
2023/03/18 06:12:40;;;;;;;;;;;;;;;;;;7366009;19;810;-64
2023/03/18 06:15:08;;;;;;;;;;;;;;;;;;7364874;19;1289;-64
2023/03/18 06:17:36;;;;;;;;;;;;;;;;;;7369597;19;800;-64
2023/03/18 06:20:04;;;;;;;;;;;;;;;;;;7366407;19;1937;-64
2023/03/18 06:22:32;;;;;;;;;;;;;;;;;;7368698;19;1918;-65
2023/03/18 06:25:01;;;;;;;;;;;;;;;;;;7363433;19;1858;-64
2023/03/18 06:27:29;;;;;;;;;;;;;;;;;;7365885;19;799;-64
2023/03/18 06:30:01;;;;;;;;;;;;;;;;;;7365054;19;811;-65
2023/03/18 06:32:30;;;;;;;;;;;;;;;;;;7369290;19;1887;-65
2023/03/18 06:34:58;;;;;;;;;;;;;;;;;;7365566;19;1668;-65
2023/03/18 06:37:27;;;;;;;;;;;;;;;;;;7368279;19;1907;-65
2023/03/18 06:39:55;;;;;;;;;;;;;;;;;;7364328;19;803;-65
2023/03/18 06:42:24;;;;;;;;;;;;;;;;;;7367862;19;1907;-65
2023/03/18 06:44:58;;;;;;;;;;;;;;;;;;7362190;19;1843;-64
2023/03/18 06:47:38;;;;;;;;;;;;;;;;;;7365734;19;1936;-63
2023/03/18 06:50:07;;;;;;;;;;;;;;;;;;7365075;19;774;-65
2023/03/18 06:52:38;;;;;;;;;;;;;;;;;;7367430;19;1743;-64
2023/03/18 06:55:11;;;;;;;;;;;;;;;;;;7362298;19;1357;-64
2023/03/18 06:57:42;;;;;;;;;;;;;;;;;;7363438;19;791;-64
2023/03/18 07:00:11;;;;;;;;;;;;;;;;;;7363825;19;787;-65
2023/03/18 07:02:39;;;;;;;;;;;;;;;;;;7364233;19;821;-64
2023/03/18 07:05:09;;;;;;;;;;;;;;;;;;7363103;19;1841;-64
2023/03/18 07:07:38;;;;;;;;;;;;;;;;;;7363733;19;802;-64
2023/03/18 07:10:06;;;;;;;;;;;;;;;;;;7365303;19;1896;-63
2023/03/18 07:12:34;;;;;;;;;;;;;;;;;;7364050;19;1906;-65
2023/03/18 07:15:02;;;;;;;;;;;;;;;;;;7364490;19;1799;-64
2023/03/18 07:17:31;;;;;;;;;;;;;;;;;;7364048;19;834;-64
2023/03/18 07:19:59;;;;;;;;;;;;;;;;;;7363894;19;842;-64
2023/03/18 07:22:28;;;;;;;;;;;;;;;;;;7364746;19;790;-64
2023/03/18 07:24:56;;;;;;;;;;;;;;;;;;7363010;19;1850;-66
2023/03/18 07:27:24;;;;;;;;;;;;;;;;;;7364447;19;795;-65
2023/03/18 07:29:53;;;;;;;;;;;;;;;;;;7363413;19;855;-64
2023/03/18 07:32:21;;;;;;;;;;;;;;;;;;7365434;19;797;-65
2023/03/18 07:34:49;;;;;;;;;;;;;;;;;;7362812;19;1348;-64
2023/03/18 07:37:17;;;;;;;;;;;;;;;;;;7365182;19;1855;-64
2023/03/18 07:39:45;;;;;;;;;;;;;;;;;;7367477;19;1778;-64
2023/03/18 07:42:14;;;;;;;;;;;;;;;;;;7365210;19;803;-64
2023/03/18 07:44:46;;;;;;;;;;;;;;;;;;7362749;19;1951;-65
2023/03/18 07:47:16;;;;;;;;;;;;;;;;;;7364267;19;850;-65
2023/03/18 07:49:44;;;;;;;;;;;;;;;;;;7363679;19;931;-64
2023/03/18 07:52:13;;;;;;;;;;;;;;;;;;7364622;19;862;-66
2023/03/18 07:54:41;;;;;;;;;;;;;;;;;;7362457;19;1333;-65
2023/03/18 07:57:09;;;;;;;;;;;;;;;;;;7364424;19;864;-65
2023/03/18 07:59:38;;;;;;;;;;;;;;;;;;7363347;19;853;-64
2023/03/18 08:02:06;;;;;;;;;;;;;;;;;;7364674;19;787;-64
2023/03/18 08:04:35;;;;;;;;;;;;;;;;;;7366452;19;1873;-64
2023/03/18 08:07:03;;;;;;;;;;;;;;;;;;7364523;19;793;-65
2023/03/18 08:09:31;;;;;;;;;;;;;;;;;;7363906;19;792;-67
2023/03/18 08:11:59;;;;;;;;;;;;;;;;;;7363455;19;810;-64
2023/03/18 08:14:27;;;;;;;;;;;;;;;;;;7362690;19;1879;-64
2023/03/18 08:16:56;;;;;;;;;;;;;;;;;;7362611;19;1869;-63
2023/03/18 08:19:24;;;;;;;;;;;;;;;;;;7362859;19;811;-63
2023/03/18 08:21:53;;;;;;;;;;;;;;;;;;7364774;19;1833;-64
2023/03/18 08:24:21;;;;;;;;;;;;;;;;;;7365763;19;2210;-64
2023/03/18 08:26:49;;;;;;;;;;;;;;;;;;7362919;19;827;-64
2023/03/18 08:29:17;;;;;;;;;;;;;;;;;;7361759;19;950;-64
2023/03/18 08:31:45;;;;;;;;;;;;;;;;;;7364759;19;2130;-63
2023/03/18 08:34:14;;;;;;;;;;;;;;;;;;7363514;19;1894;-65
2023/03/18 08:36:42;;;;;;;;;;;;;;;;;;7364036;19;1859;-64
2023/03/18 08:39:11;;;;;;;;;;;;;;;;;;7360363;19;2160;-65
2023/03/18 08:41:39;;;;;;;;;;;;;;;;;;7367762;19;1820;-64
2023/03/18 08:44:09;;;;;;;;;;;;;;;;;;7364368;19;1864;-64
2023/03/18 08:46:37;;;;;;;;;;;;;;;;;;7365842;19;1874;-64
2023/03/18 08:49:05;;;;;;;;;;;;;;;;;;7362398;19;770;-64
2023/03/18 08:51:34;;;;;;;;;;;;;;;;;;7366708;19;1914;-65
2023/03/18 08:54:03;;;;;;;;;;;;;;;;;;7362084;19;1574;-66
2023/03/18 08:56:31;;;;;;;;;;;;;;;;;;7362587;19;821;-64
2023/03/18 08:58:59;;;;;;;;;;;;;;;;;;7362637;19;1315;-65
2023/03/18 09:01:27;;;;;;;;;;;;;;;;;;7366846;19;1312;-64
2023/03/18 09:03:56;;;;;;;;;;;;;;;;;;7365207;19;1862;-65
2023/03/18 09:06:25;;;;;;;;;;;;;;;;;;7364173;19;1892;-64
2023/03/18 09:08:53;;;;;;;;;;;;;;;;;;7364664;19;1846;-64
2023/03/18 09:11:21;;;;;;;;;;;;;;;;;;7365439;19;1500;-65
2023/03/18 09:13:49;;;;;;;;;;;;;;;;;;7361582;19;1258;-65
2023/03/18 09:16:17;;;;;;;;;;;;;;;;;;7365619;19;1641;-64
2023/03/18 09:18:46;;;;;;;;;;;;;;;;;;7361925;19;811;-65
2023/03/18 09:21:14;;;;;;;;;;;;;;;;;;7364796;19;833;-64
2023/03/18 09:23:43;;;;;;;;;;;;;;;;;;7369458;19;1822;-66
2023/03/18 09:26:11;;;;;;;;;;;;;;;;;;7378674;19;897;-65
2023/03/18 09:28:39;;;;;;;;;;;;;;;;;;7384392;19;778;-65
2023/03/18 09:31:07;;;;;;;;;;;;;;;;;;7386477;19;1805;-65
2023/03/18 09:33:36;;;;;;;;;;;;;;;;;;7383627;19;1334;-65
2023/03/18 09:36:04;;;;;;;;;;;;;;;;;;7383579;19;789;-65
2023/03/18 09:38:32;;;;;;;;;;;;;;;;;;7387037;19;817;-65
2023/03/18 09:41:00;;;;;;;;;;;;;;;;;;7385765;19;1158;-64
2023/03/18 09:43:28;;;;;;;;;;;;;;;;;;7381772;19;2207;-63
2023/03/18 09:45:56;;;;;;;;;;;;;;;;;;7384760;19;1931;-64
2023/03/18 09:48:25;;;;;;;;;;;;;;;;;;7383552;19;771;-65
2023/03/18 09:50:53;;;;;;;;;;;;;;;;;;7384765;19;1674;-65
2023/03/18 09:53:21;;;;;;;;;;;;;;;;;;7371080;19;1863;-65
2023/03/18 09:55:50;;;;;;;;;;;;;;;;;;7369056;19;857;-64
2023/03/18 09:58:18;;;;;;;;;;;;;;;;;;7370259;19;1000;-65
2023/03/18 10:00:46;;;;;;;;;;;;;;;;;;7372628;19;1762;-64
2023/03/18 10:03:14;;;;;;;;;;;;;;;;;;7367906;19;1266;-65
2023/03/18 10:05:42;;;;;;;;;;;;;;;;;;7368907;19;1865;-65
2023/03/18 10:08:10;;;;;;;;;;;;;;;;;;7369804;19;1816;-65
2023/03/18 10:10:38;;;;;;;;;;;;;;;;;;7367144;19;836;-64
2023/03/18 10:13:07;;;;;;;;;;;;;;;;;;7370285;19;1866;-64
2023/03/18 10:15:35;;;;;;;;;;;;;;;;;;7365628;19;877;-63
2023/03/18 10:18:03;;;;;;;;;;;;;;;;;;7367921;19;798;-64
2023/03/18 10:20:31;;;;;;;;;;;;;;;;;;7371335;19;1537;-64
2023/03/18 10:23:00;;;;;;;;;;;;;;;;;;7370006;19;1899;-64
2023/03/18 10:25:28;;;;;;;;;;;;;;;;;;7363144;19;1857;-64
2023/03/18 10:27:56;;;;;;;;;;;;;;;;;;7365760;19;1835;-64
2023/03/18 10:30:24;;;;;;;;;;;;;;;;;;7364479;19;2227;-64
2023/03/18 10:32:52;;;;;;;;;;;;;;;;;;7368371;19;1458;-65
2023/03/18 10:35:21;;;;;;;;;;;;;;;;;;7358946;19;2122;-64
2023/03/18 10:37:49;;;;;;;;;;;;;;;;;;7371203;19;1389;-64
2023/03/18 10:40:17;;;;;;;;;;;;;;;;;;7364310;19;1164;-64
2023/03/18 10:42:45;;;;;;;;;;;;;;;;;;7366944;19;809;-65
2023/03/18 10:45:13;;;;;;;;;;;;;;;;;;7364976;19;1853;-64
2023/03/18 10:47:42;;;;;;;;;;;;;;;;;;7365353;19;802;-65
2023/03/18 10:50:10;;;;;;;;;;;;;;;;;;7365416;19;849;-64
2023/03/18 10:52:38;;;;;;;;;;;;;;;;;;7366920;19;1211;-64
2023/03/18 10:55:13;;;;;;;;;;;;;;;;;;7363538;19;1234;-63
2023/03/18 10:57:41;;;;;;;;;;;;;;;;;;7368518;19;1880;-64
2023/03/18 11:00:09;;;;;;;;;;;;;;;;;;7366310;19;830;-64
2023/03/18 11:02:38;;;;;;;;;;;;;;;;;;7364497;19;845;-64
2023/03/18 11:05:06;;;;;;;;;;;;;;;;;;7361349;19;1886;-64
2023/03/18 11:07:34;;;;;;;;;;;;;;;;;;7365270;19;869;-64
2023/03/18 11:10:05;;;;;;;;;;;;;;;;;;7367248;19;1161;-65
2023/03/18 11:12:33;;;;;;;;;;;;;;;;;;7366260;19;717;-64
2023/03/18 11:15:01;;;;;;;;;;;;;;;;;;7362362;19;1338;-63
2023/03/18 11:17:30;;;;;;;;;;;;;;;;;;7365500;19;939;-63
2023/03/18 11:19:58;;;;;;;;;;;;;;;;;;7365453;19;830;-64
2023/03/18 11:22:26;;;;;;;;;;;;;;;;;;7367843;19;1821;-63
2023/03/18 11:24:54;;;;;;;;;;;;;;;;;;7362078;19;1857;-64
2023/03/18 11:27:22;;;;;;;;;;;;;;;;;;7366473;19;869;-64
2023/03/18 11:29:50;;;;;;;;;;;;;;;;;;7363932;19;862;-63
2023/03/18 11:32:18;;;;;;;;;;;;;;;;;;7365396;19;877;-63
2023/03/18 11:34:46;;;;;;;;;;;;;;;;;;7365348;19;1612;-63
2023/03/18 11:37:15;;;;;;;;;;;;;;;;;;7364562;19;870;-64
2023/03/18 11:39:43;;;;;;;;;;;;;;;;;;7364250;19;802;-64
2023/03/18 11:42:11;;;;;;;;;;;;;;;;;;7364828;19;927;-63
2023/03/18 11:44:39;;;;;;;;;;;;;;;;;;7365429;19;1876;-63
2023/03/18 11:47:07;;;;;;;;;;;;;;;;;;7364063;19;847;-64
2023/03/18 11:49:35;;;;;;;;;;;;;;;;;;7367637;19;1665;-64
2023/03/18 11:52:04;;;;;;;;;;;;;;;;;;7366660;19;1851;-64
2023/03/18 11:54:32;;;;;;;;;;;;;;;;;;7364857;19;1835;-63
2023/03/18 11:57:00;;;;;;;;;;;;;;;;;;7367408;19;1907;-64
2023/03/18 11:59:28;;;;;;;;;;;;;;;;;;7368982;19;1658;-64
2023/03/18 12:01:57;;;;;;;;;;;;;;;;;;7365867;19;1595;-65
2023/03/18 12:04:25;;;;;;;;;;;;;;;;;;7362693;19;1857;-65
2023/03/18 12:06:54;;;;;;;;;;;;;;;;;;7365725;19;790;-63
2023/03/18 12:09:22;;;;;;;;;;;;;;;;;;7366136;19;1574;-66
2023/03/18 12:11:50;;;;;;;;;;;;;;;;;;7365529;19;789;-66
2023/03/18 12:14:18;;;;;;;;;;;;;;;;;;7362683;19;1312;-65
2023/03/18 12:16:47;;;;;;;;;;;;;;;;;;7364296;19;838;-65
2023/03/18 12:19:16;;;;;;;;;;;;;;;;;;7365533;19;854;-65
2023/03/18 12:21:44;;;;;;;;;;;;;;;;;;7364164;19;857;-66
2023/03/18 12:24:12;;;;;;;;;;;;;;;;;;7363062;19;1572;-65
2023/03/18 12:26:40;;;;;;;;;;;;;;;;;;7361483;19;1857;-64
2023/03/18 12:29:10;;;;;;;;;;;;;;;;;;7364258;19;1080;-64
2023/03/18 12:31:39;;;;;;;;;;;;;;;;;;7363569;19;712;-64
2023/03/18 12:34:07;;;;;;;;;;;;;;;;;;7363090;19;1305;-65
2023/03/18 12:36:35;;;;;;;;;;;;;;;;;;7364162;19;778;-65
2023/03/18 12:39:04;;;;;;;;;;;;;;;;;;7362392;19;806;-64
2023/03/18 12:41:32;;;;;;;;;;;;;;;;;;7367573;19;1769;-65
2023/03/18 12:44:01;;;;;;;;;;;;;;;;;;7362442;19;1316;-64
2023/03/18 12:46:29;;;;;;;;;;;;;;;;;;7360558;19;1900;-64
2023/03/18 12:48:57;;;;;;;;;;;;;;;;;;7361002;19;822;-64
2023/03/18 12:51:25;;;;;;;;;;;;;;;;;;7365132;19;1461;-65
2023/03/18 12:53:53;;;;;;;;;;;;;;;;;;7358574;19;1344;-64
2023/03/18 12:56:22;;;;;;;;;;;;;;;;;;7362601;19;831;-64
2023/03/18 12:58:50;;;;;;;;;;;;;;;;;;7361845;19;778;-64
2023/03/18 13:01:18;;;;;;;;;;;;;;;;;;7362437;19;818;-63
2023/03/18 13:03:46;;;;;;;;;;;;;;;;;;7366616;19;1281;-64
2023/03/18 13:06:16;;;;;;;;;;;;;;;;;;7367400;19;1849;-64
2023/03/18 13:08:44;;;;;;;;;;;;;;;;;;7370423;19;767;-65
2023/03/18 13:11:12;;;;;;;;;;;;;;;;;;7369476;19;1784;-66
2023/03/18 13:13:40;;;;;;;;;;;;;;;;;;7367193;19;1372;-66
2023/03/18 13:16:08;;;;;;;;;;;;;;;;;;7369403;19;789;-65
2023/03/18 13:18:37;;;;;;;;;;;;;;;;;;7369496;19;865;-65
2023/03/18 13:21:05;;;;;;;;;;;;;;;;;;7370507;19;811;-64
2023/03/18 13:23:33;;;;;;;;;;;;;;;;;;7369299;19;1356;-65
2023/03/18 13:26:01;;;;;;;;;;;;;;;;;;7368561;19;1853;-65
2023/03/18 13:28:30;;;;;;;;;;;;;;;;;;7367763;19;805;-65
2023/03/18 13:30:58;;;;;;;;;;;;;;;;;;7371047;19;1352;-64
2023/03/18 13:33:26;;;;;;;;;;;;;;;;;;7368883;19;1345;-64
2023/03/18 13:35:54;;;;;;;;;;;;;;;;;;7369114;19;806;-65
2023/03/18 13:38:22;;;;;;;;;;;;;;;;;;7366998;19;827;-65
2023/03/18 13:40:51;;;;;;;;;;;;;;;;;;7367877;19;789;-65
2023/03/18 13:43:19;;;;;;;;;;;;;;;;;;7368007;19;1355;-64
2023/03/18 13:45:47;;;;;;;;;;;;;;;;;;7369716;19;1850;-64
2023/03/18 13:48:15;;;;;;;;;;;;;;;;;;7368041;19;847;-64
2023/03/18 13:50:44;;;;;;;;;;;;;;;;;;7367295;19;976;-64
2023/03/18 13:53:13;;;;;;;;;;;;;;;;;;7367172;19;1273;-63
2023/03/18 13:55:43;;;;;;;;;;;;;;;;;;7368913;19;763;-64
2023/03/18 13:58:12;;;;;;;;;;;;;;;;;;7368056;19;848;-64
2023/03/18 14:00:40;;;;;;;;;;;;;;;;;;7371427;19;1771;-64
2023/03/18 14:03:08;;;;;;;;;;;;;;;;;;7368077;19;1270;-64
2023/03/18 14:05:39;;;;;;;;;;;;;;;;;;7366751;19;1853;-64
2023/03/18 14:08:07;;;;;;;;;;;;;;;;;;7367501;19;807;-64
2023/03/18 14:10:35;;;;;;;;;;;;;;;;;;7372540;19;1065;-64
2023/03/18 14:13:06;;;;;;;;;;;;;;;;;;7367187;19;821;-64
2023/03/18 14:15:34;;;;;;;;;;;;;;;;;;7367741;19;822;-65
2023/03/18 14:18:02;;;;;;;;;;;;;;;;;;7368237;19;1692;-65
2023/03/18 14:20:30;;;;;;;;;;;;;;;;;;7366993;19;865;-65
2023/03/18 14:22:58;;;;;;;;;;;;;;;;;;7371734;19;1856;-65
2023/03/18 14:25:27;;;;;;;;;;;;;;;;;;7364185;19;1838;-65
2023/03/18 14:27:55;;;;;;;;;;;;;;;;;;7366744;19;861;-65
2023/03/18 14:30:23;;;;;;;;;;;;;;;;;;7366289;19;867;-65
2023/03/18 14:32:51;;;;;;;;;;;;;;;;;;7367262;19;834;-65
2023/03/18 14:35:26;;;;;;;;;;;;;;;;;;7364772;19;1305;-65
2023/03/18 14:37:55;;;;;;;;;;;;;;;;;;7367086;19;1870;-65
2023/03/18 14:40:23;;;;;;;;;;;;;;;;;;7367984;19;809;-65
2023/03/18 14:42:51;;;;;;;;;;;;;;;;;;7367172;19;808;-65
2023/03/18 14:45:20;;;;;;;;;;;;;;;;;;7366072;19;1857;-65
2023/03/18 14:47:49;;;;;;;;;;;;;;;;;;7366868;19;819;-65
2023/03/18 14:50:17;;;;;;;;;;;;;;;;;;7367610;19;804;-66
2023/03/18 14:52:46;;;;;;;;;;;;;;;;;;7365916;19;1648;-66
2023/03/18 14:55:16;;;;;;;;;;;;;;;;;;7364555;19;1274;-65
2023/03/18 14:57:44;;;;;;;;;;;;;;;;;;7365452;19;869;-65
2023/03/18 15:00:12;;;;;;;;;;;;;;;;;;7363963;19;877;-65
2023/03/18 15:02:40;;;;;;;;;;;;;;;;;;7367111;19;1886;-65
2023/03/18 15:05:09;;;;;;;;;;;;;;;;;;7365553;19;1852;-65
2023/03/18 15:07:37;;;;;;;;;;;;;;;;;;7366293;19;1894;-65
2023/03/18 15:10:05;;;;;;;;;;;;;;;;;;7366334;19;857;-64
2023/03/18 15:12:33;;;;;;;;;;;;;;;;;;7365776;19;778;-64
2023/03/18 15:15:02;;;;;;;;;;;;;;;;;;7364038;19;1286;-63
2023/03/18 15:17:31;;;;;;;;;;;;;;;;;;7368449;19;1880;-65
2023/03/18 15:19:59;;;;;;;;;;;;;;;;;;7366532;19;860;-66
2023/03/18 15:22:28;;;;;;;;;;;;;;;;;;7365748;19;865;-67
2023/03/18 15:24:56;;;;;;;;;;;;;;;;;;7364494;19;1886;-66
2023/03/18 15:27:24;;;;;;;;;;;;;;;;;;7364073;19;1842;-65
2023/03/18 15:29:52;;;;;;;;;;;;;;;;;;7365592;19;893;-66
2023/03/18 15:32:20;;;;;;;;;;;;;;;;;;7365983;19;845;-65
2023/03/18 15:34:48;;;;;;;;;;;;;;;;;;7365119;19;1775;-65
2023/03/18 15:37:16;;;;;;;;;;;;;;;;;;7365699;19;835;-65
2023/03/18 15:39:45;;;;;;;;;;;;;;;;;;7365527;19;857;-66
2023/03/18 15:42:13;;;;;;;;;;;;;;;;;;7366929;19;1840;-65
2023/03/18 15:44:41;;;;;;;;;;;;;;;;;;7368122;19;2362;-65
2023/03/18 15:47:09;;;;;;;;;;;;;;;;;;7364455;19;1845;-66
2023/03/18 15:49:37;;;;;;;;;;;;;;;;;;7365299;19;809;-65
2023/03/18 15:52:06;;;;;;;;;;;;;;;;;;7368397;19;1733;-66
2023/03/18 15:54:35;;;;;;;;;;;;;;;;;;7362583;19;1294;-65
2023/03/18 15:57:03;;;;;;;;;;;;;;;;;;7364851;19;1356;-64
2023/03/18 15:59:31;;;;;;;;;;;;;;;;;;7363868;19;814;-65
2023/03/18 16:01:59;;;;;;;;;;;;;;;;;;7366530;19;1834;-64
2023/03/18 16:04:27;;;;;;;;;;;;;;;;;;7362550;19;1808;-64
2023/03/18 16:06:55;;;;;;;;;;;;;;;;;;7362200;19;1874;-64
2023/03/18 16:09:23;;;;;;;;;;;;;;;;;;7362879;19;787;-64
2023/03/18 16:11:52;;;;;;;;;;;;;;;;;;7363845;19;918;-64
2023/03/18 16:14:20;;;;;;;;;;;;;;;;;;7362034;19;1876;-64
2023/03/18 16:16:48;;;;;;;;;;;;;;;;;;7364844;19;1802;-64
2023/03/18 16:19:16;;;;;;;;;;;;;;;;;;7364277;19;1731;-64
2023/03/18 16:21:44;;;;;;;;;;;;;;;;;;7364137;19;1625;-64
2023/03/18 16:24:12;;;;;;;;;;;;;;;;;;7364630;19;1671;-63
2023/03/18 16:26:41;;;;;;;;;;;;;;;;;;7362041;19;1842;-64
2023/03/18 16:29:09;;;;;;;;;;;;;;;;;;7366222;19;1851;-65
2023/03/18 16:31:37;;;;;;;;;;;;;;;;;;7363106;19;1829;-64
2023/03/18 16:34:05;;;;;;;;;;;;;;;;;;7365540;19;1858;-64
2023/03/18 16:36:33;;;;;;;;;;;;;;;;;;7359599;19;791;-64
2023/03/18 16:39:02;;;;;;;;;;;;;;;;;;7369191;19;853;-64
2023/03/18 16:41:30;;;;;;;;;;;;;;;;;;7368857;19;830;-64
2023/03/18 16:43:58;;;;;;;;;;;;;;;;;;7367843;19;1320;-64
2023/03/18 16:46:26;;;;;;;;;;;;;;;;;;7367093;19;1841;-64
2023/03/18 16:48:55;;;;;;;;;;;;;;;;;;7367531;19;866;-64
2023/03/18 16:51:25;;;;;;;;;;;;;;;;;;7369158;19;779;-64
2023/03/18 16:53:53;;;;;;;;;;;;;;;;;;7368571;19;1359;-64
2023/03/18 16:56:22;;;;;;;;;;;;;;;;;;7369385;19;794;-64
2023/03/18 16:58:51;;;;;;;;;;;;;;;;;;7368384;19;812;-64
2023/03/18 17:01:20;;;;;;;;;;;;;;;;;;7368541;19;1713;-64
2023/03/18 17:03:48;;;;;;;;;;;;;;;;;;7372053;19;1879;-64
2023/03/18 17:06:16;;;;;;;;;;;;;;;;;;7371476;19;1844;-64
2023/03/18 17:08:44;;;;;;;;;;;;;;;;;;7367879;19;829;-64
2023/03/18 17:11:13;;;;;;;;;;;;;;;;;;7368241;19;850;-64
2023/03/18 17:13:41;;;;;;;;;;;;;;;;;;7367816;19;1256;-64
2023/03/18 17:16:09;;;;;;;;;;;;;;;;;;7366337;19;1781;-64
2023/03/18 17:18:37;;;;;;;;;;;;;;;;;;7368201;19;797;-64
2023/03/18 17:21:05;;;;;;;;;;;;;;;;;;7368799;19;778;-64